createdAt,value
2017-08-15T00:00:06.418Z,46.06
2017-08-15T00:01:06.450Z,46.15
2017-08-15T00:02:06.150Z,46.25
2017-08-15T00:03:06.489Z,46.35
2017-08-15T00:04:06.520Z,46.35
2017-08-15T00:05:06.537Z,46.25
2017-08-15T00:06:06.562Z,46.25
2017-08-15T00:07:06.590Z,46.25
2017-08-15T00:08:06.615Z,46.45
2017-08-15T00:09:06.767Z,46.64
2017-08-15T00:10:06.658Z,46.83
2017-08-15T00:11:06.689Z,46.45
2017-08-15T00:12:06.395Z,46.64
2017-08-15T00:13:06.734Z,46.64
2017-08-15T00:14:06.877Z,46.83
2017-08-15T00:15:06.876Z,47.03
2017-08-15T00:16:06.492Z,46.83
2017-08-15T00:17:13.356Z,46.93
2017-08-15T00:18:06.862Z,46.73
2017-08-15T00:19:06.888Z,46.64
2017-08-15T00:20:06.913Z,46.64
2017-08-15T00:21:06.933Z,47.22
2017-08-15T00:22:06.644Z,47.12
2017-08-15T00:23:06.989Z,46.83
2017-08-15T00:24:07.005Z,46.83
2017-08-15T00:25:06.839Z,46.83
2017-08-15T00:26:07.057Z,47.12
2017-08-15T00:27:07.076Z,46.83
2017-08-15T00:28:06.785Z,46.83
2017-08-15T00:29:06.812Z,47.12
2017-08-15T00:30:06.832Z,47.03
2017-08-15T00:31:07.219Z,47.03
2017-08-15T00:32:07.202Z,47.51
2017-08-15T00:33:07.228Z,47.19
2017-08-15T00:34:07.255Z,47.1
2017-08-15T00:35:07.270Z,47.03
2017-08-15T00:36:06.978Z,47.39
2017-08-15T00:37:07.324Z,47.29
2017-08-15T00:38:07.428Z,47.22
2017-08-15T00:39:07.480Z,47.49
2017-08-15T00:40:07.073Z,47.49
2017-08-15T00:41:07.414Z,46.91
2017-08-15T00:42:07.450Z,47.49
2017-08-15T00:43:07.462Z,47.29
2017-08-15T00:44:07.486Z,47.39
2017-08-15T00:45:07.512Z,47.39
2017-08-15T00:46:07.216Z,47
2017-08-15T00:47:07.242Z,47
2017-08-15T00:48:07.581Z,47.58
2017-08-15T00:49:07.294Z,47.77
2017-08-15T00:50:07.634Z,47.58
2017-08-15T00:51:07.659Z,47.87
2017-08-15T00:52:07.697Z,47.67
2017-08-15T00:53:07.706Z,47.29
2017-08-15T00:54:07.729Z,47.97
2017-08-15T00:55:07.750Z,47.67
2017-08-15T00:56:07.777Z,47.77
2017-08-15T00:57:07.799Z,47.87
2017-08-15T00:58:07.826Z,47.87
2017-08-15T00:59:07.606Z,47.87
2017-08-15T01:00:07.870Z,48.06
2017-08-15T01:01:07.577Z,48.16
2017-08-15T01:02:08.041Z,48.35
2017-08-15T01:03:07.945Z,48.16
2017-08-15T01:04:07.995Z,48.44
2017-08-15T01:05:07.993Z,48.44
2017-08-15T01:06:07.704Z,48.35
2017-08-15T01:07:08.036Z,48.35
2017-08-15T01:08:08.059Z,48.25
2017-08-15T01:09:08.087Z,48.44
2017-08-15T01:10:07.788Z,48.44
2017-08-15T01:11:08.133Z,48.25
2017-08-15T01:12:08.158Z,48.35
2017-08-15T01:13:08.182Z,48.25
2017-08-15T01:14:08.201Z,48.35
2017-08-15T01:15:08.226Z,48.83
2017-08-15T01:16:07.931Z,48.06
2017-08-15T01:17:08.278Z,48.23
2017-08-15T01:18:08.102Z,48.25
2017-08-15T01:19:08.466Z,48.16
2017-08-15T01:20:08.149Z,47.94
2017-08-15T01:21:08.462Z,48.71
2017-08-15T01:22:08.512Z,48.74
2017-08-15T01:23:08.412Z,48.25
2017-08-15T01:24:08.441Z,48.43
2017-08-15T01:25:08.463Z,48.81
2017-08-15T01:26:08.486Z,48.33
2017-08-15T01:27:08.194Z,48.33
2017-08-15T01:28:08.534Z,48.33
2017-08-15T01:29:08.250Z,48.33
2017-08-15T01:30:08.264Z,48.23
2017-08-15T01:31:08.607Z,48.33
2017-08-15T01:32:08.633Z,48.23
2017-08-15T01:33:08.652Z,48.23
2017-08-15T01:34:08.678Z,48.23
2017-08-15T01:35:08.700Z,48.03
2017-08-15T01:36:08.725Z,48.61
2017-08-15T01:37:08.751Z,48.61
2017-08-15T01:38:08.450Z,48.33
2017-08-15T01:39:08.792Z,48.13
2017-08-15T01:40:08.819Z,48.52
2017-08-15T01:41:08.842Z,48.43
2017-08-15T01:42:08.861Z,48.71
2017-08-15T01:43:08.887Z,48.71
2017-08-15T01:44:08.906Z,48.52
2017-08-15T01:45:08.933Z,48.61
2017-08-15T01:46:08.961Z,48.43
2017-08-15T01:47:08.984Z,48.33
2017-08-15T01:48:09.016Z,48.33
2017-08-15T01:49:09.033Z,48.13
2017-08-15T01:50:09.053Z,48.13
2017-08-15T01:51:09.073Z,48.52
2017-08-15T01:52:09.106Z,48.52
2017-08-15T01:53:09.119Z,48.61
2017-08-15T01:54:09.151Z,48.59
2017-08-15T01:55:09.169Z,48.59
2017-08-15T01:56:09.192Z,48.13
2017-08-15T01:57:08.899Z,48.33
2017-08-15T01:58:08.921Z,48.43
2017-08-15T01:59:09.264Z,48.4
2017-08-15T02:00:09.282Z,48.3
2017-08-15T02:01:09.309Z,48.4
2017-08-15T02:02:09.337Z,48.11
2017-08-15T02:03:09.355Z,48.4
2017-08-15T02:04:09.060Z,48.49
2017-08-15T02:05:09.401Z,48.21
2017-08-15T02:06:09.425Z,48.3
2017-08-15T02:07:09.448Z,48.49
2017-08-15T02:08:09.479Z,48.3
2017-08-15T02:09:09.499Z,48.49
2017-08-15T02:10:09.524Z,48.59
2017-08-15T02:11:09.550Z,48.59
2017-08-15T02:12:09.574Z,48.59
2017-08-15T02:13:09.591Z,48.69
2017-08-15T02:14:09.618Z,48.59
2017-08-15T02:15:09.634Z,48.49
2017-08-15T02:16:09.658Z,48.4
2017-08-15T02:17:09.681Z,48.4
2017-08-15T02:18:09.395Z,48.59
2017-08-15T02:19:09.732Z,48.69
2017-08-15T02:20:09.755Z,48.59
2017-08-15T02:21:09.774Z,48.88
2017-08-15T02:22:09.799Z,48.59
2017-08-15T02:23:09.824Z,48.88
2017-08-15T02:24:09.846Z,49.07
2017-08-15T02:25:09.866Z,48.79
2017-08-15T02:26:09.892Z,48.97
2017-08-15T02:27:09.913Z,48.97
2017-08-15T02:28:09.939Z,48.79
2017-08-15T02:29:09.964Z,48.69
2017-08-15T02:30:09.671Z,48.97
2017-08-15T02:31:10.010Z,48.88
2017-08-15T02:32:10.030Z,49.07
2017-08-15T02:33:10.055Z,49.17
2017-08-15T02:34:10.079Z,48.97
2017-08-15T02:35:10.101Z,49.15
2017-08-15T02:36:10.131Z,49.65
2017-08-15T02:37:10.190Z,49.53
2017-08-15T02:38:10.216Z,49.43
2017-08-15T02:39:09.876Z,49.53
2017-08-15T02:40:10.217Z,49.43
2017-08-15T02:41:09.924Z,49.43
2017-08-15T02:42:10.267Z,49.43
2017-08-15T02:43:10.283Z,49.43
2017-08-15T02:44:10.310Z,49.33
2017-08-15T02:45:10.331Z,49.33
2017-08-15T02:46:10.359Z,49.24
2017-08-15T02:47:10.376Z,49.43
2017-08-15T02:48:10.402Z,49.53
2017-08-15T02:49:10.441Z,49.63
2017-08-15T02:50:10.450Z,49.53
2017-08-15T02:51:10.471Z,50.2
2017-08-15T02:52:10.494Z,49.72
2017-08-15T02:53:10.519Z,49.72
2017-08-15T02:54:10.545Z,49.91
2017-08-15T02:55:10.564Z,49.82
2017-08-15T02:56:10.588Z,50.1
2017-08-15T02:57:10.602Z,49.91
2017-08-15T02:58:10.313Z,50.1
2017-08-15T02:59:10.654Z,49.91
2017-08-15T03:00:10.676Z,50.1
2017-08-15T03:01:10.701Z,50.97
2017-08-15T03:02:10.728Z,50.2
2017-08-15T03:03:10.745Z,50.87
2017-08-15T03:04:10.452Z,50.78
2017-08-15T03:05:10.790Z,50.2
2017-08-15T03:06:10.817Z,50.2
2017-08-15T03:07:10.839Z,50.59
2017-08-15T03:08:10.862Z,50.2
2017-08-15T03:09:10.887Z,50.3
2017-08-15T03:10:10.904Z,50.97
2017-08-15T03:11:10.936Z,50.2
2017-08-15T03:12:10.951Z,50.2
2017-08-15T03:13:10.973Z,50.37
2017-08-15T03:14:11.000Z,50.59
2017-08-15T03:15:11.020Z,50.56
2017-08-15T03:16:11.041Z,50.68
2017-08-15T03:17:10.751Z,50.66
2017-08-15T03:18:11.091Z,50.56
2017-08-15T03:19:11.114Z,50.76
2017-08-15T03:20:10.815Z,50.95
2017-08-15T03:21:11.161Z,50.66
2017-08-15T03:22:11.175Z,50.49
2017-08-15T03:23:11.201Z,50.66
2017-08-15T03:24:11.227Z,50.78
2017-08-15T03:25:11.251Z,50.66
2017-08-15T03:26:11.272Z,50.78
2017-08-15T03:27:10.981Z,50.66
2017-08-15T03:28:11.318Z,50.85
2017-08-15T03:29:11.339Z,50.95
2017-08-15T03:30:11.363Z,50.95
2017-08-15T03:31:11.389Z,50.95
2017-08-15T03:32:11.412Z,50.95
2017-08-15T03:33:11.114Z,50.76
2017-08-15T03:34:11.133Z,50.85
2017-08-15T03:35:11.162Z,50.85
2017-08-15T03:36:11.183Z,50.95
2017-08-15T03:37:11.203Z,50.95
2017-08-15T03:38:11.231Z,51.04
2017-08-15T03:39:11.570Z,50.95
2017-08-15T03:40:11.589Z,51.23
2017-08-15T03:41:11.610Z,50.95
2017-08-15T03:42:11.330Z,51.04
2017-08-15T03:43:11.656Z,51.04
2017-08-15T03:44:11.679Z,51.04
2017-08-15T03:45:11.707Z,51.14
2017-08-15T03:46:11.409Z,51.04
2017-08-15T03:47:11.809Z,51.23
2017-08-15T03:48:11.807Z,51.04
2017-08-15T03:49:11.804Z,51.14
2017-08-15T03:50:11.934Z,50.95
2017-08-15T03:51:11.521Z,50.95
2017-08-15T03:52:11.859Z,51.14
2017-08-15T03:53:11.883Z,51.14
2017-08-15T03:54:11.590Z,51.23
2017-08-15T03:55:11.929Z,51.14
2017-08-15T03:56:11.952Z,51.43
2017-08-15T03:57:11.976Z,51.14
2017-08-15T03:58:11.997Z,51.43
2017-08-15T03:59:12.022Z,51.53
2017-08-15T04:00:11.730Z,51.23
2017-08-15T04:01:12.067Z,51.72
2017-08-15T04:02:12.092Z,51.91
2017-08-15T04:03:12.111Z,51.91
2017-08-15T04:04:11.818Z,51.69
2017-08-15T04:05:12.154Z,51.98
2017-08-15T04:06:12.183Z,51.98
2017-08-15T04:07:12.204Z,51.69
2017-08-15T04:08:11.907Z,51.88
2017-08-15T04:09:12.242Z,51.69
2017-08-15T04:10:12.270Z,51.59
2017-08-15T04:11:11.971Z,51.79
2017-08-15T04:12:12.314Z,51.88
2017-08-15T04:13:12.332Z,52.08
2017-08-15T04:14:12.356Z,51.79
2017-08-15T04:15:12.381Z,52.2
2017-08-15T04:16:12.401Z,52.08
2017-08-15T04:17:12.429Z,52.08
2017-08-15T04:18:12.129Z,52.08
2017-08-15T04:19:12.473Z,52.26
2017-08-15T04:20:12.496Z,51.98
2017-08-15T04:21:12.199Z,51.98
2017-08-15T04:22:12.666Z,52.26
2017-08-15T04:23:12.564Z,52.26
2017-08-15T04:24:12.803Z,52.08
2017-08-15T04:25:12.288Z,52.26
2017-08-15T04:26:12.626Z,52.17
2017-08-15T04:27:12.651Z,52.17
2017-08-15T04:28:12.670Z,52.55
2017-08-15T04:29:12.695Z,52.65
2017-08-15T04:30:12.721Z,52.55
2017-08-15T04:31:12.735Z,52.46
2017-08-15T04:32:12.760Z,52.36
2017-08-15T04:33:12.782Z,52.65
2017-08-15T04:34:12.489Z,52.75
2017-08-15T04:35:12.828Z,52.65
2017-08-15T04:36:12.533Z,52.75
2017-08-15T04:37:12.868Z,52.55
2017-08-15T04:38:12.585Z,52.46
2017-08-15T04:39:12.920Z,52.55
2017-08-15T04:40:12.937Z,52.46
2017-08-15T04:41:12.964Z,52.75
2017-08-15T04:42:12.980Z,52.75
2017-08-15T04:43:13.004Z,52.84
2017-08-15T04:44:13.030Z,52.65
2017-08-15T04:45:13.047Z,52.84
2017-08-15T04:46:13.271Z,52.94
2017-08-15T04:47:13.121Z,53.13
2017-08-15T04:48:13.119Z,53.13
2017-08-15T04:49:13.138Z,53.13
2017-08-15T04:50:13.159Z,53.23
2017-08-15T04:51:13.183Z,53.13
2017-08-15T04:52:13.206Z,53.03
2017-08-15T04:53:12.911Z,52.94
2017-08-15T04:54:13.248Z,53.03
2017-08-15T04:55:13.269Z,53.23
2017-08-15T04:56:13.292Z,53.23
2017-08-15T04:57:13.316Z,53.32
2017-08-15T04:58:13.334Z,53.42
2017-08-15T04:59:13.042Z,53.52
2017-08-15T05:00:13.380Z,53.7
2017-08-15T05:01:13.088Z,53.52
2017-08-15T05:02:13.428Z,53.52
2017-08-15T05:03:13.448Z,53.52
2017-08-15T05:04:13.150Z,52.94
2017-08-15T05:05:13.490Z,53.32
2017-08-15T05:06:13.513Z,53.42
2017-08-15T05:07:13.535Z,52.65
2017-08-15T05:08:13.561Z,53.9
2017-08-15T05:09:13.580Z,53.61
2017-08-15T05:10:13.687Z,53.7
2017-08-15T05:11:13.624Z,53.61
2017-08-15T05:12:13.645Z,53.61
2017-08-15T05:13:13.669Z,53.9
2017-08-15T05:14:13.689Z,53.8
2017-08-15T05:15:13.717Z,53.32
2017-08-15T05:16:13.737Z,53.8
2017-08-15T05:17:13.758Z,53.03
2017-08-15T05:18:13.779Z,53.7
2017-08-15T05:19:13.822Z,53.8
2017-08-15T05:20:13.820Z,53.7
2017-08-15T05:21:13.881Z,54.19
2017-08-15T05:22:13.555Z,54.38
2017-08-15T05:23:13.890Z,54.09
2017-08-15T05:24:13.915Z,54.09
2017-08-15T05:25:13.951Z,54
2017-08-15T05:26:14.093Z,54.19
2017-08-15T05:27:13.659Z,54
2017-08-15T05:28:13.680Z,53.7
2017-08-15T05:29:13.705Z,53.7
2017-08-15T05:30:14.043Z,54.57
2017-08-15T05:31:14.068Z,54.38
2017-08-15T05:32:14.241Z,54.96
2017-08-15T05:33:14.107Z,54.09
2017-08-15T05:34:13.816Z,54.38
2017-08-15T05:35:14.297Z,54.67
2017-08-15T05:36:14.308Z,54.47
2017-08-15T05:37:14.337Z,54.38
2017-08-15T05:38:14.357Z,54.57
2017-08-15T05:39:14.395Z,55.05
2017-08-15T05:40:14.053Z,54.67
2017-08-15T05:41:14.289Z,54.77
2017-08-15T05:42:14.312Z,55.05
2017-08-15T05:43:14.019Z,55.15
2017-08-15T05:44:14.371Z,55.24
2017-08-15T05:45:14.065Z,55.34
2017-08-15T05:46:14.395Z,55.34
2017-08-15T05:47:14.421Z,55.63
2017-08-15T05:48:14.441Z,55.91
2017-08-15T05:49:14.490Z,55.63
2017-08-15T05:50:14.484Z,55.34
2017-08-15T05:51:14.211Z,55.53
2017-08-15T05:52:14.530Z,55.34
2017-08-15T05:53:14.554Z,55.34
2017-08-15T05:54:14.572Z,55.24
2017-08-15T05:55:14.594Z,55.24
2017-08-15T05:56:14.622Z,55.34
2017-08-15T05:57:14.640Z,55.27
2017-08-15T05:58:14.347Z,55.24
2017-08-15T05:59:14.383Z,55.34
2017-08-15T06:00:14.387Z,55.37
2017-08-15T06:01:14.730Z,55.37
2017-08-15T06:02:14.433Z,55.27
2017-08-15T06:03:14.458Z,55.18
2017-08-15T06:04:14.480Z,55.27
2017-08-15T06:05:14.506Z,55.37
2017-08-15T06:06:15.050Z,55.37
2017-08-15T06:07:14.582Z,55.37
2017-08-15T06:08:14.882Z,55.27
2017-08-15T06:09:14.907Z,55.08
2017-08-15T06:10:14.933Z,54.41
2017-08-15T06:11:14.947Z,54.5
2017-08-15T06:12:14.654Z,54.79
2017-08-15T06:13:14.993Z,54.91
2017-08-15T06:14:14.767Z,53.96
2017-08-15T06:15:14.720Z,54.63
2017-08-15T06:16:15.059Z,54.53
2017-08-15T06:17:15.080Z,54.34
2017-08-15T06:18:15.118Z,54.82
2017-08-15T06:19:14.816Z,54.24
2017-08-15T06:20:15.150Z,54.24
2017-08-15T06:21:14.858Z,53.66
2017-08-15T06:22:15.257Z,54.05
2017-08-15T06:23:15.218Z,53.96
2017-08-15T06:24:15.244Z,53.88
2017-08-15T06:25:15.267Z,53.76
2017-08-15T06:26:15.290Z,54.05
2017-08-15T06:27:15.305Z,53.78
2017-08-15T06:28:15.329Z,53.78
2017-08-15T06:29:15.346Z,53.5
2017-08-15T06:30:15.373Z,53.98
2017-08-15T06:31:15.300Z,53.69
2017-08-15T06:32:15.472Z,53.11
2017-08-15T06:33:15.442Z,53.69
2017-08-15T06:34:15.461Z,52.92
2017-08-15T06:35:15.545Z,52.92
2017-08-15T06:36:15.544Z,53.78
2017-08-15T06:37:15.542Z,53.4
2017-08-15T06:38:15.552Z,53.53
2017-08-15T06:39:15.574Z,53.14
2017-08-15T06:40:15.598Z,53.53
2017-08-15T06:41:15.624Z,53.62
2017-08-15T06:42:15.745Z,53.43
2017-08-15T06:43:15.662Z,53.05
2017-08-15T06:44:15.703Z,53.23
2017-08-15T06:45:15.831Z,52.66
2017-08-15T06:46:15.850Z,52.66
2017-08-15T06:47:15.851Z,53.05
2017-08-15T06:48:15.868Z,52.75
2017-08-15T06:49:15.483Z,52.75
2017-08-15T06:50:15.825Z,52.47
2017-08-15T06:51:15.846Z,52.69
2017-08-15T06:52:15.879Z,52.4
2017-08-15T06:53:16.093Z,52.49
2017-08-15T06:54:15.596Z,52.4
2017-08-15T06:55:15.932Z,52.69
2017-08-15T06:56:15.641Z,52.49
2017-08-15T06:57:15.668Z,52.49
2017-08-15T06:58:15.688Z,52.78
2017-08-15T06:59:16.029Z,52.4
2017-08-15T07:00:16.049Z,52.59
2017-08-15T07:01:15.869Z,52.59
2017-08-15T07:02:16.196Z,52.69
2017-08-15T07:03:16.320Z,52.69
2017-08-15T07:04:16.142Z,52.59
2017-08-15T07:05:15.894Z,52.59
2017-08-15T07:06:15.872Z,52.33
2017-08-15T07:07:16.209Z,52.42
2017-08-15T07:08:15.915Z,52.3
2017-08-15T07:09:16.257Z,52.42
2017-08-15T07:10:16.281Z,52.33
2017-08-15T07:11:16.302Z,52.33
2017-08-15T07:12:16.327Z,52.33
2017-08-15T07:13:16.471Z,52.61
2017-08-15T07:14:16.434Z,52.33
2017-08-15T07:15:16.544Z,52.33
2017-08-15T07:16:16.425Z,52.33
2017-08-15T07:17:16.444Z,52.13
2017-08-15T07:18:16.470Z,52.61
2017-08-15T07:19:16.614Z,52.71
2017-08-15T07:20:16.518Z,52.23
2017-08-15T07:21:16.533Z,52.42
2017-08-15T07:22:16.557Z,52.42
2017-08-15T07:23:16.581Z,52.33
2017-08-15T07:24:16.601Z,52.06
2017-08-15T07:25:16.625Z,51.77
2017-08-15T07:26:16.660Z,51.87
2017-08-15T07:27:16.671Z,51.87
2017-08-15T07:28:16.695Z,51.77
2017-08-15T07:29:16.724Z,51.97
2017-08-15T07:30:16.743Z,51.39
2017-08-15T07:31:16.766Z,51.41
2017-08-15T07:32:16.786Z,51.51
2017-08-15T07:33:16.810Z,51.32
2017-08-15T07:34:16.837Z,51.12
2017-08-15T07:35:16.854Z,51.03
2017-08-15T07:36:16.567Z,50.84
2017-08-15T07:37:16.905Z,50.84
2017-08-15T07:38:16.741Z,51.12
2017-08-15T07:39:16.955Z,50.28
2017-08-15T07:40:16.979Z,50.18
2017-08-15T07:41:16.691Z,50.38
2017-08-15T07:42:17.023Z,50.28
2017-08-15T07:43:17.044Z,49.6
2017-08-15T07:44:17.072Z,50.76
2017-08-15T07:45:17.094Z,50.28
2017-08-15T07:46:16.803Z,49.53
2017-08-15T07:47:17.142Z,49.63
2017-08-15T07:48:16.848Z,49.44
2017-08-15T07:49:17.191Z,49.24
2017-08-15T07:50:17.222Z,49.53
2017-08-15T07:51:17.238Z,48.57
2017-08-15T07:52:17.257Z,48.88
2017-08-15T07:53:17.282Z,48.79
2017-08-15T07:54:17.381Z,48.79
2017-08-15T07:55:17.016Z,48.79
2017-08-15T07:56:17.358Z,48.49
2017-08-15T07:57:17.374Z,48.21
2017-08-15T07:58:17.400Z,48.69
2017-08-15T07:59:17.466Z,48.01
2017-08-15T08:00:17.451Z,48.23
2017-08-15T08:01:17.536Z,48.13
2017-08-15T08:02:17.535Z,47.55
2017-08-15T08:03:17.582Z,47.55
2017-08-15T08:04:17.603Z,47.48
2017-08-15T08:05:17.573Z,47.19
2017-08-15T08:06:17.600Z,47.28
2017-08-15T08:07:17.620Z,47
2017-08-15T08:08:17.644Z,47.09
2017-08-15T08:09:17.665Z,46.9
2017-08-15T08:10:17.688Z,46.92
2017-08-15T08:11:17.712Z,46.53
2017-08-15T08:12:17.901Z,46.44
2017-08-15T08:13:17.770Z,46.44
2017-08-15T08:14:17.786Z,46.34
2017-08-15T08:15:17.813Z,46.44
2017-08-15T08:16:17.960Z,46.15
2017-08-15T08:17:17.884Z,46.17
2017-08-15T08:18:17.784Z,45.98
2017-08-15T08:19:17.593Z,45.68
2017-08-15T08:20:17.936Z,45.78
2017-08-15T08:21:17.959Z,45.68
2017-08-15T08:22:17.983Z,45.32
2017-08-15T08:23:17.697Z,45.42
2017-08-15T08:24:18.030Z,44.93
2017-08-15T08:25:18.062Z,44.84
2017-08-15T08:26:18.077Z,44.64
2017-08-15T08:27:18.110Z,44.35
2017-08-15T08:28:18.271Z,43.89
2017-08-15T08:29:18.162Z,44.64
2017-08-15T08:30:18.180Z,44.37
2017-08-15T08:31:18.209Z,43.99
2017-08-15T08:32:18.231Z,43.99
2017-08-15T08:33:18.260Z,44.27
2017-08-15T08:34:18.282Z,44.18
2017-08-15T08:35:18.312Z,43.89
2017-08-15T08:36:18.013Z,43.7
2017-08-15T08:37:18.357Z,43.91
2017-08-15T08:38:18.405Z,43.72
2017-08-15T08:39:18.407Z,43.82
2017-08-15T08:40:18.115Z,43.43
2017-08-15T08:41:18.452Z,43.43
2017-08-15T08:42:18.486Z,43.23
2017-08-15T08:43:18.507Z,43.04
2017-08-15T08:44:18.532Z,43.04
2017-08-15T08:45:18.563Z,43.04
2017-08-15T08:46:18.585Z,43.04
2017-08-15T08:47:18.616Z,43.06
2017-08-15T08:48:18.636Z,43.06
2017-08-15T08:49:18.660Z,43.06
2017-08-15T08:50:18.810Z,43.16
2017-08-15T08:51:18.714Z,43.16
2017-08-15T08:52:18.740Z,43.26
2017-08-15T08:53:18.760Z,43.08
2017-08-15T08:54:18.791Z,42.79
2017-08-15T08:55:18.819Z,42.99
2017-08-15T08:56:18.846Z,42.69
2017-08-15T08:57:18.864Z,42.5
2017-08-15T08:58:18.887Z,42.5
2017-08-15T08:59:18.932Z,42.79
2017-08-15T09:00:18.828Z,42.4
2017-08-15T09:01:18.967Z,42.5
2017-08-15T09:02:19.001Z,42.6
2017-08-15T09:03:19.022Z,42.3
2017-08-15T09:04:19.051Z,42.52
2017-08-15T09:05:18.758Z,42.33
2017-08-15T09:06:19.106Z,42.33
2017-08-15T09:07:19.319Z,42.03
2017-08-15T09:08:19.149Z,42.23
2017-08-15T09:09:19.177Z,42.23
2017-08-15T09:10:18.888Z,42.33
2017-08-15T09:11:19.234Z,42.23
2017-08-15T09:12:19.253Z,42.03
2017-08-15T09:13:18.967Z,41.96
2017-08-15T09:14:19.309Z,41.57
2017-08-15T09:15:19.338Z,41.67
2017-08-15T09:16:19.050Z,41.57
2017-08-15T09:17:19.410Z,41.57
2017-08-15T09:18:19.417Z,41.57
2017-08-15T09:19:19.559Z,41.49
2017-08-15T09:20:19.472Z,41.3
2017-08-15T09:21:19.492Z,41.39
2017-08-15T09:22:19.525Z,41.39
2017-08-15T09:23:19.554Z,41.01
2017-08-15T09:24:19.572Z,41.1
2017-08-15T09:25:19.602Z,41.1
2017-08-15T09:26:19.631Z,40.81
2017-08-15T09:27:19.655Z,41.03
2017-08-15T09:28:19.683Z,41.03
2017-08-15T09:29:19.711Z,41.22
2017-08-15T09:30:19.742Z,41.03
2017-08-15T09:31:19.759Z,41.03
2017-08-15T09:32:19.789Z,40.34
2017-08-15T09:33:19.499Z,40.66
2017-08-15T09:34:19.842Z,40.27
2017-08-15T09:35:19.871Z,40.37
2017-08-15T09:36:19.901Z,39.98
2017-08-15T09:37:19.922Z,40.08
2017-08-15T09:38:19.950Z,40.17
2017-08-15T09:39:19.985Z,40.37
2017-08-15T09:40:20.003Z,40.08
2017-08-15T09:41:20.044Z,40.17
2017-08-15T09:42:20.057Z,40.37
2017-08-15T09:43:20.084Z,40.09
2017-08-15T09:44:19.796Z,40
2017-08-15T09:45:20.141Z,40.29
2017-08-15T09:46:20.168Z,40
2017-08-15T09:47:20.196Z,39.82
2017-08-15T09:48:20.223Z,39.92
2017-08-15T09:49:20.248Z,39.92
2017-08-15T09:50:19.961Z,39.92
2017-08-15T09:51:20.302Z,39.82
2017-08-15T09:52:20.338Z,40.01
2017-08-15T09:53:20.358Z,39.92
2017-08-15T09:54:20.387Z,39.55
2017-08-15T09:55:20.097Z,39.16
2017-08-15T09:56:20.445Z,39.06
2017-08-15T09:57:20.465Z,38.98
2017-08-15T09:58:20.495Z,39.18
2017-08-15T09:59:20.525Z,38.89
2017-08-15T10:00:20.551Z,39.18
2017-08-15T10:01:20.584Z,39
2017-08-15T10:02:20.611Z,38.81
2017-08-15T10:03:20.316Z,38.32
2017-08-15T10:04:20.664Z,38.51
2017-08-15T10:05:20.698Z,37.93
2017-08-15T10:06:20.402Z,38.04
2017-08-15T10:07:20.742Z,38.24
2017-08-15T10:08:20.773Z,38.34
2017-08-15T10:09:20.805Z,38.24
2017-08-15T10:10:20.512Z,37.67
2017-08-15T10:11:20.860Z,37.38
2017-08-15T10:12:20.890Z,37.38
2017-08-15T10:13:20.912Z,37.11
2017-08-15T10:14:20.945Z,36.72
2017-08-15T10:15:20.970Z,36.04
2017-08-15T10:16:20.999Z,36.43
2017-08-15T10:17:21.032Z,35.85
2017-08-15T10:18:21.065Z,35.75
2017-08-15T10:19:21.089Z,35.46
2017-08-15T10:20:20.794Z,35.27
2017-08-15T10:21:21.316Z,35.27
2017-08-15T10:22:21.171Z,34.6
2017-08-15T10:23:21.204Z,34.48
2017-08-15T10:24:21.231Z,34.6
2017-08-15T10:25:21.254Z,34.41
2017-08-15T10:26:21.284Z,34.8
2017-08-15T10:27:21.323Z,34.8
2017-08-15T10:28:21.349Z,34.5
2017-08-15T10:29:21.372Z,34.62
2017-08-15T10:30:21.399Z,34.72
2017-08-15T10:31:21.433Z,34.42
2017-08-15T10:32:21.460Z,34.42
2017-08-15T10:33:21.491Z,34.44
2017-08-15T10:34:21.521Z,34.42
2017-08-15T10:35:21.348Z,34.44
2017-08-15T10:36:21.575Z,33.56
2017-08-15T10:37:21.601Z,33.56
2017-08-15T10:38:21.646Z,33.26
2017-08-15T10:39:21.669Z,33.26
2017-08-15T10:40:21.378Z,33.17
2017-08-15T10:41:21.721Z,33.09
2017-08-15T10:42:21.755Z,32.7
2017-08-15T10:43:21.780Z,32.3
2017-08-15T10:44:21.498Z,32.3
2017-08-15T10:45:21.524Z,32.61
2017-08-15T10:46:21.872Z,32.2
2017-08-15T10:47:21.899Z,32.03
2017-08-15T10:48:21.929Z,31.93
2017-08-15T10:49:21.959Z,31.83
2017-08-15T10:50:21.671Z,32.03
2017-08-15T10:51:22.016Z,31.44
2017-08-15T10:52:21.733Z,31.35
2017-08-15T10:53:22.086Z,31.16
2017-08-15T10:54:21.793Z,30.67
2017-08-15T10:55:22.140Z,30.87
2017-08-15T10:56:22.170Z,30.98
2017-08-15T10:57:21.877Z,30.78
2017-08-15T10:58:22.231Z,30.68
2017-08-15T10:59:22.259Z,30.49
2017-08-15T11:00:22.290Z,30.49
2017-08-15T11:01:22.322Z,30.49
2017-08-15T11:02:22.478Z,30.21
2017-08-15T11:03:22.378Z,30.11
2017-08-15T11:04:22.093Z,30.01
2017-08-15T11:05:22.442Z,30.4
2017-08-15T11:06:22.470Z,30.22
2017-08-15T11:07:22.512Z,30.3
2017-08-15T11:08:22.540Z,29.24
2017-08-15T11:09:22.564Z,29.14
2017-08-15T11:10:22.596Z,29.83
2017-08-15T11:11:22.746Z,29.63
2017-08-15T11:12:22.650Z,29.63
2017-08-15T11:13:22.372Z,29.45
2017-08-15T11:14:22.714Z,28.96
2017-08-15T11:15:22.741Z,29.25
2017-08-15T11:16:22.460Z,29.25
2017-08-15T11:17:22.807Z,29.25
2017-08-15T11:18:22.519Z,28.88
2017-08-15T11:19:22.871Z,28.88
2017-08-15T11:20:22.897Z,28.58
2017-08-15T11:21:22.930Z,28.58
2017-08-15T11:22:22.963Z,28.49
2017-08-15T11:23:22.991Z,28.39
2017-08-15T11:24:23.025Z,27.89
2017-08-15T11:25:22.736Z,27.99
2017-08-15T11:26:23.087Z,27.91
2017-08-15T11:27:22.800Z,27.81
2017-08-15T11:28:23.152Z,27.61
2017-08-15T11:29:23.178Z,28
2017-08-15T11:30:22.902Z,27.91
2017-08-15T11:31:23.244Z,27.61
2017-08-15T11:32:23.277Z,28.02
2017-08-15T11:33:23.307Z,27.92
2017-08-15T11:34:23.334Z,27.62
2017-08-15T11:35:23.372Z,27.62
2017-08-15T11:36:23.083Z,27.72
2017-08-15T11:37:23.430Z,27.33
2017-08-15T11:38:23.470Z,27.92
2017-08-15T11:39:23.494Z,27.53
2017-08-15T11:40:23.523Z,27.43
2017-08-15T11:41:23.555Z,27.04
2017-08-15T11:42:23.586Z,26.85
2017-08-15T11:43:23.309Z,27.54
2017-08-15T11:44:23.653Z,27.44
2017-08-15T11:45:23.683Z,27.34
2017-08-15T11:46:23.719Z,27.34
2017-08-15T11:47:23.431Z,26.46
2017-08-15T11:48:23.783Z,26.77
2017-08-15T11:49:23.874Z,26.97
2017-08-15T11:50:23.843Z,27.06
2017-08-15T11:51:23.871Z,26.87
2017-08-15T11:52:23.594Z,26.77
2017-08-15T11:53:23.937Z,26.77
2017-08-15T11:54:23.974Z,26.47
2017-08-15T11:55:24.006Z,26.67
2017-08-15T11:56:24.037Z,26.98
2017-08-15T11:57:24.067Z,26.58
2017-08-15T11:58:24.104Z,26.68
2017-08-15T11:59:24.280Z,26.88
2017-08-15T12:00:24.190Z,26.29
2017-08-15T12:01:24.196Z,26.29
2017-08-15T12:02:24.276Z,26.39
2017-08-15T12:03:23.945Z,25.9
2017-08-15T12:04:23.979Z,26.4
2017-08-15T12:05:24.332Z,25.51
2017-08-15T12:06:24.362Z,25.42
2017-08-15T12:07:24.394Z,25.61
2017-08-15T12:08:24.423Z,25.42
2017-08-15T12:09:24.144Z,25.81
2017-08-15T12:10:24.499Z,24.92
2017-08-15T12:11:24.421Z,24.74
2017-08-15T12:12:24.564Z,24.34
2017-08-15T12:13:24.586Z,24.54
2017-08-15T12:14:24.307Z,24.84
2017-08-15T12:15:24.654Z,24.34
2017-08-15T12:16:24.690Z,24.54
2017-08-15T12:17:24.722Z,24.54
2017-08-15T12:18:24.753Z,24.93
2017-08-15T12:19:24.790Z,24.54
2017-08-15T12:20:24.819Z,24.44
2017-08-15T12:21:24.851Z,24.16
2017-08-15T12:22:24.568Z,24.35
2017-08-15T12:23:24.605Z,23.76
2017-08-15T12:24:24.952Z,23.96
2017-08-15T12:25:24.984Z,23.86
2017-08-15T12:26:25.050Z,24.06
2017-08-15T12:27:24.732Z,24.06
2017-08-15T12:28:24.764Z,24.16
2017-08-15T12:29:25.117Z,24.35
2017-08-15T12:30:25.158Z,24.45
2017-08-15T12:31:25.182Z,24.65
2017-08-15T12:32:25.213Z,24.37
2017-08-15T12:33:25.248Z,24.37
2017-08-15T12:34:24.965Z,24.37
2017-08-15T12:35:25.313Z,24.56
2017-08-15T12:36:25.347Z,24.37
2017-08-15T12:37:25.069Z,24.27
2017-08-15T12:38:25.101Z,24.48
2017-08-15T12:39:25.451Z,24.77
2017-08-15T12:40:25.486Z,24.87
2017-08-15T12:41:25.514Z,23.79
2017-08-15T12:42:25.548Z,24.08
2017-08-15T12:43:25.587Z,23.79
2017-08-15T12:44:25.613Z,23.88
2017-08-15T12:45:25.653Z,23.8
2017-08-15T12:46:25.681Z,23.3
2017-08-15T12:47:25.715Z,23.99
2017-08-15T12:48:25.435Z,23.8
2017-08-15T12:49:25.784Z,23.81
2017-08-15T12:50:25.825Z,23.81
2017-08-15T12:51:25.541Z,23.71
2017-08-15T12:52:25.886Z,23.11
2017-08-15T12:53:25.920Z,23.41
2017-08-15T12:54:25.952Z,23.51
2017-08-15T12:55:25.987Z,23.41